Terminal Aerodrome Forecast
Issued by NWS Jackson, KY

Home | Current Version | Previous Version | Text Only | Print | Product List | Glossary On
Versions: 1 2 3 4 5 6 7 8 9 10 11 12 13 14 15 16 17
428
FTUS43 KJKL 050523
TAFLOZ
TAF
KLOZ 050523Z 0506/0606 VRB03KT P6SM BKN120
     FM050900 VRB03KT 6SM -SHRA BR OVC050
     FM051100 31006KT 6SM -SHRA BR OVC025
     FM051700 32010G18KT P6SM OVC035
     FM052200 30008KT P6SM VCSH OVC040=

USA.gov is the U.S. government's official web portal to all federal, state and local government web resources and services.